sensor_id;sensor_type;location;lat;lon;timestamp;P1;durP1;ratioP1;P2;durP2;ratioP2
54745;SDS011;40640;48.130;11.356;2023-02-24T00:00:06;12.00;;;6.53;;
54745;SDS011;40640;48.130;11.356;2023-02-24T00:08:38;12.60;;;6.13;;
54745;SDS011;40640;48.130;11.356;2023-02-24T00:12:42;9.45;;;5.78;;
54745;SDS011;40640;48.130;11.356;2023-02-24T00:16:47;11.98;;;6.18;;
54745;SDS011;40640;48.130;11.356;2023-02-24T00:20:52;11.52;;;5.70;;
54745;SDS011;40640;48.130;11.356;2023-02-24T00:24:57;18.10;;;7.30;;
54745;SDS011;40640;48.130;11.356;2023-02-24T00:29:03;13.15;;;6.72;;
54745;SDS011;40640;48.130;11.356;2023-02-24T00:33:07;9.38;;;5.53;;
54745;SDS011;40640;48.130;11.356;2023-02-24T00:37:14;13.93;;;6.00;;
54745;SDS011;40640;48.130;11.356;2023-02-24T00:41:18;11.23;;;5.67;;
54745;SDS011;40640;48.130;11.356;2023-02-24T00:45:24;14.63;;;6.03;;
54745;SDS011;40640;48.130;11.356;2023-02-24T00:49:31;14.75;;;5.47;;
54745;SDS011;40640;48.130;11.356;2023-02-24T00:53:38;17.45;;;5.60;;
54745;SDS011;40640;48.130;11.356;2023-02-24T00:57:41;13.57;;;5.38;;
54745;SDS011;40640;48.130;11.356;2023-02-24T01:01:45;13.48;;;6.50;;
54745;SDS011;40640;48.130;11.356;2023-02-24T01:05:50;9.80;;;5.75;;
54745;SDS011;40640;48.130;11.356;2023-02-24T01:09:55;15.57;;;6.07;;
54745;SDS011;40640;48.130;11.356;2023-02-24T01:13:58;13.63;;;6.47;;
54745;SDS011;40640;48.130;11.356;2023-02-24T01:18:01;11.57;;;5.78;;
54745;SDS011;40640;48.130;11.356;2023-02-24T01:22:05;11.82;;;6.10;;
54745;SDS011;40640;48.130;11.356;2023-02-24T01:26:11;14.27;;;6.23;;
54745;SDS011;40640;48.130;11.356;2023-02-24T01:30:14;11.07;;;6.07;;
54745;SDS011;40640;48.130;11.356;2023-02-24T01:34:19;9.85;;;5.60;;
54745;SDS011;40640;48.130;11.356;2023-02-24T01:38:22;17.30;;;6.63;;
54745;SDS011;40640;48.130;11.356;2023-02-24T01:42:26;12.63;;;6.65;;
54745;SDS011;40640;48.130;11.356;2023-02-24T01:46:30;11.35;;;6.18;;
54745;SDS011;40640;48.130;11.356;2023-02-24T01:50:34;13.27;;;6.35;;
54745;SDS011;40640;48.130;11.356;2023-02-24T01:54:39;13.85;;;6.18;;
54745;SDS011;40640;48.130;11.356;2023-02-24T01:58:46;12.70;;;6.97;;
54745;SDS011;40640;48.130;11.356;2023-02-24T02:02:50;12.90;;;6.72;;
54745;SDS011;40640;48.130;11.356;2023-02-24T02:06:53;14.30;;;7.55;;
54745;SDS011;40640;48.130;11.356;2023-02-24T02:11:00;12.68;;;7.32;;
54745;SDS011;40640;48.130;11.356;2023-02-24T02:15:08;13.70;;;6.90;;
54745;SDS011;40640;48.130;11.356;2023-02-24T02:24:10;13.90;;;6.80;;
54745;SDS011;40640;48.130;11.356;2023-02-24T02:38:16;13.18;;;7.47;;
54745;SDS011;40640;48.130;11.356;2023-02-24T02:42:27;16.20;;;7.47;;
54745;SDS011;40640;48.130;11.356;2023-02-24T02:46:35;14.07;;;6.35;;
54745;SDS011;40640;48.130;11.356;2023-02-24T02:50:43;11.30;;;6.30;;
54745;SDS011;40640;48.130;11.356;2023-02-24T02:54:52;13.32;;;6.55;;
54745;SDS011;40640;48.130;11.356;2023-02-24T02:58:58;18.42;;;6.95;;
54745;SDS011;40640;48.130;11.356;2023-02-24T03:03:04;11.40;;;6.85;;
54745;SDS011;40640;48.130;11.356;2023-02-24T03:07:10;14.57;;;7.03;;
54745;SDS011;40640;48.130;11.356;2023-02-24T03:11:17;13.10;;;7.68;;
54745;SDS011;40640;48.130;11.356;2023-02-24T03:15:23;20.38;;;7.45;;
54745;SDS011;40640;48.130;11.356;2023-02-24T03:19:30;11.23;;;6.90;;
54745;SDS011;40640;48.130;11.356;2023-02-24T03:23:39;16.92;;;7.78;;
54745;SDS011;40640;48.130;11.356;2023-02-24T03:27:48;12.48;;;6.93;;
54745;SDS011;40640;48.130;11.356;2023-02-24T03:31:54;12.40;;;7.47;;
54745;SDS011;40640;48.130;11.356;2023-02-24T03:36:02;15.88;;;7.45;;
54745;SDS011;40640;48.130;11.356;2023-02-24T03:40:07;13.13;;;7.72;;
54745;SDS011;40640;48.130;11.356;2023-02-24T03:44:16;10.95;;;6.97;;
54745;SDS011;40640;48.130;11.356;2023-02-24T03:48:19;16.23;;;7.43;;
54745;SDS011;40640;48.130;11.356;2023-02-24T03:52:26;12.15;;;6.68;;
54745;SDS011;40640;48.130;11.356;2023-02-24T03:56:36;12.98;;;7.20;;
54745;SDS011;40640;48.130;11.356;2023-02-24T04:00:52;11.27;;;7.15;;
54745;SDS011;40640;48.130;11.356;2023-02-24T04:05:02;11.77;;;7.50;;
54745;SDS011;40640;48.130;11.356;2023-02-24T04:09:24;13.45;;;6.70;;
54745;SDS011;40640;48.130;11.356;2023-02-24T04:13:40;13.68;;;7.20;;
54745;SDS011;40640;48.130;11.356;2023-02-24T04:17:54;14.35;;;6.45;;
54745;SDS011;40640;48.130;11.356;2023-02-24T04:22:02;20.42;;;7.15;;
54745;SDS011;40640;48.130;11.356;2023-02-24T04:26:08;17.20;;;7.50;;
54745;SDS011;40640;48.130;11.356;2023-02-24T04:30:14;14.80;;;6.72;;
54745;SDS011;40640;48.130;11.356;2023-02-24T04:34:18;12.35;;;6.85;;
54745;SDS011;40640;48.130;11.356;2023-02-24T04:38:23;9.07;;;5.97;;
54745;SDS011;40640;48.130;11.356;2023-02-24T04:42:27;14.63;;;7.35;;
54745;SDS011;40640;48.130;11.356;2023-02-24T04:46:30;17.20;;;6.90;;
54745;SDS011;40640;48.130;11.356;2023-02-24T04:50:35;14.52;;;6.65;;
54745;SDS011;40640;48.130;11.356;2023-02-24T04:54:38;14.80;;;6.45;;
54745;SDS011;40640;48.130;11.356;2023-02-24T04:58:41;12.70;;;6.13;;
54745;SDS011;40640;48.130;11.356;2023-02-24T05:02:46;10.38;;;5.90;;
54745;SDS011;40640;48.130;11.356;2023-02-24T05:06:51;11.85;;;5.80;;
54745;SDS011;40640;48.130;11.356;2023-02-24T05:10:57;14.10;;;5.68;;
54745;SDS011;40640;48.130;11.356;2023-02-24T05:15:04;24.88;;;8.25;;
54745;SDS011;40640;48.130;11.356;2023-02-24T05:19:08;15.63;;;5.95;;
54745;SDS011;40640;48.130;11.356;2023-02-24T05:23:42;12.75;;;5.65;;
54745;SDS011;40640;48.130;11.356;2023-02-24T05:27:45;15.00;;;5.80;;
54745;SDS011;40640;48.130;11.356;2023-02-24T05:31:48;10.23;;;4.45;;
54745;SDS011;40640;48.130;11.356;2023-02-24T05:35:54;12.15;;;4.65;;
54745;SDS011;40640;48.130;11.356;2023-02-24T05:39:59;10.20;;;4.75;;
54745;SDS011;40640;48.130;11.356;2023-02-24T05:44:02;18.65;;;7.32;;
54745;SDS011;40640;48.130;11.356;2023-02-24T05:48:08;15.27;;;6.03;;
54745;SDS011;40640;48.130;11.356;2023-02-24T05:52:11;12.55;;;5.57;;
54745;SDS011;40640;48.130;11.356;2023-02-24T05:56:16;13.32;;;5.15;;
54745;SDS011;40640;48.130;11.356;2023-02-24T06:00:20;10.23;;;5.25;;
54745;SDS011;40640;48.130;11.356;2023-02-24T06:04:26;9.07;;;4.55;;
54745;SDS011;40640;48.130;11.356;2023-02-24T06:08:39;11.02;;;5.00;;
54745;SDS011;40640;48.130;11.356;2023-02-24T06:12:50;12.68;;;5.57;;
54745;SDS011;40640;48.130;11.356;2023-02-24T06:16:55;10.95;;;5.28;;
54745;SDS011;40640;48.130;11.356;2023-02-24T06:21:01;14.65;;;6.25;;
54745;SDS011;40640;48.130;11.356;2023-02-24T06:25:05;16.58;;;5.88;;
54745;SDS011;40640;48.130;11.356;2023-02-24T06:29:13;11.82;;;5.05;;
54745;SDS011;40640;48.130;11.356;2023-02-24T06:33:16;13.25;;;5.78;;
54745;SDS011;40640;48.130;11.356;2023-02-24T06:37:19;15.70;;;4.90;;
54745;SDS011;40640;48.130;11.356;2023-02-24T06:41:23;9.70;;;4.85;;
54745;SDS011;40640;48.130;11.356;2023-02-24T06:45:31;10.93;;;5.55;;
54745;SDS011;40640;48.130;11.356;2023-02-24T06:49:34;9.10;;;5.20;;
54745;SDS011;40640;48.130;11.356;2023-02-24T06:53:37;11.57;;;4.90;;
54745;SDS011;40640;48.130;11.356;2023-02-24T06:57:43;11.15;;;5.43;;
54745;SDS011;40640;48.130;11.356;2023-02-24T07:01:47;11.10;;;4.97;;
54745;SDS011;40640;48.130;11.356;2023-02-24T07:05:51;10.10;;;5.30;;
54745;SDS011;40640;48.130;11.356;2023-02-24T07:10:11;9.45;;;5.38;;
54745;SDS011;40640;48.130;11.356;2023-02-24T07:14:14;12.20;;;5.45;;
54745;SDS011;40640;48.130;11.356;2023-02-24T07:18:18;19.13;;;5.80;;
54745;SDS011;40640;48.130;11.356;2023-02-24T07:22:21;13.55;;;4.60;;
54745;SDS011;40640;48.130;11.356;2023-02-24T07:26:25;10.45;;;4.78;;
54745;SDS011;40640;48.130;11.356;2023-02-24T07:30:30;17.75;;;6.15;;
54745;SDS011;40640;48.130;11.356;2023-02-24T07:34:35;14.50;;;5.10;;
54745;SDS011;40640;48.130;11.356;2023-02-24T07:38:41;10.23;;;4.57;;
54745;SDS011;40640;48.130;11.356;2023-02-24T07:42:44;17.13;;;7.53;;
54745;SDS011;40640;48.130;11.356;2023-02-24T07:46:49;14.05;;;5.10;;
54745;SDS011;40640;48.130;11.356;2023-02-24T07:50:54;12.38;;;5.82;;
54745;SDS011;40640;48.130;11.356;2023-02-24T07:54:56;11.88;;;5.80;;
54745;SDS011;40640;48.130;11.356;2023-02-24T07:59:01;16.73;;;6.07;;
54745;SDS011;40640;48.130;11.356;2023-02-24T08:03:08;11.00;;;5.40;;
54745;SDS011;40640;48.130;11.356;2023-02-24T08:07:12;14.93;;;5.78;;
54745;SDS011;40640;48.130;11.356;2023-02-24T08:11:15;16.58;;;7.20;;
54745;SDS011;40640;48.130;11.356;2023-02-24T08:15:18;10.27;;;5.05;;
54745;SDS011;40640;48.130;11.356;2023-02-24T08:23:34;16.48;;;5.38;;
54745;SDS011;40640;48.130;11.356;2023-02-24T08:27:45;15.55;;;4.85;;
54745;SDS011;40640;48.130;11.356;2023-02-24T08:32:08;15.68;;;5.57;;
54745;SDS011;40640;48.130;11.356;2023-02-24T08:36:11;11.80;;;6.20;;
54745;SDS011;40640;48.130;11.356;2023-02-24T08:40:24;13.02;;;5.35;;
54745;SDS011;40640;48.130;11.356;2023-02-24T08:44:39;13.40;;;5.93;;
54745;SDS011;40640;48.130;11.356;2023-02-24T08:48:43;14.45;;;6.43;;
54745;SDS011;40640;48.130;11.356;2023-02-24T08:52:47;16.67;;;6.90;;
54745;SDS011;40640;48.130;11.356;2023-02-24T08:56:53;24.52;;;7.93;;
54745;SDS011;40640;48.130;11.356;2023-02-24T09:00:57;18.52;;;7.38;;
54745;SDS011;40640;48.130;11.356;2023-02-24T09:05:01;15.02;;;6.68;;
54745;SDS011;40640;48.130;11.356;2023-02-24T09:09:14;24.83;;;7.57;;
54745;SDS011;40640;48.130;11.356;2023-02-24T09:13:21;19.05;;;8.63;;
54745;SDS011;40640;48.130;11.356;2023-02-24T09:17:28;13.25;;;7.47;;
54745;SDS011;40640;48.130;11.356;2023-02-24T09:21:41;14.80;;;8.05;;
54745;SDS011;40640;48.130;11.356;2023-02-24T09:26:04;18.00;;;9.25;;
54745;SDS011;40640;48.130;11.356;2023-02-24T09:34:36;15.85;;;9.60;;
54745;SDS011;40640;48.130;11.356;2023-02-24T09:38:45;21.00;;;10.38;;
54745;SDS011;40640;48.130;11.356;2023-02-24T09:43:09;13.98;;;9.43;;
54745;SDS011;40640;48.130;11.356;2023-02-24T09:47:20;15.35;;;9.52;;
54745;SDS011;40640;48.130;11.356;2023-02-24T09:51:40;17.95;;;9.48;;
54745;SDS011;40640;48.130;11.356;2023-02-24T09:55:47;18.88;;;10.32;;
54745;SDS011;40640;48.130;11.356;2023-02-24T10:00:05;13.57;;;9.73;;
54745;SDS011;40640;48.130;11.356;2023-02-24T10:04:36;16.67;;;9.38;;
54745;SDS011;40640;48.130;11.356;2023-02-24T10:08:56;14.95;;;8.38;;
54745;SDS011;40640;48.130;11.356;2023-02-24T10:13:12;12.38;;;8.50;;
54745;SDS011;40640;48.130;11.356;2023-02-24T10:17:30;13.68;;;8.30;;
54745;SDS011;40640;48.130;11.356;2023-02-24T10:21:44;16.15;;;8.65;;
54745;SDS011;40640;48.130;11.356;2023-02-24T10:26:01;12.75;;;8.52;;
54745;SDS011;40640;48.130;11.356;2023-02-24T10:30:10;13.98;;;8.70;;
54745;SDS011;40640;48.130;11.356;2023-02-24T10:34:20;20.35;;;8.57;;
54745;SDS011;40640;48.130;11.356;2023-02-24T10:38:33;19.63;;;10.05;;
54745;SDS011;40640;48.130;11.356;2023-02-24T10:42:37;19.88;;;8.70;;
54745;SDS011;40640;48.130;11.356;2023-02-24T10:46:57;15.40;;;8.95;;
54745;SDS011;40640;48.130;11.356;2023-02-24T10:51:12;17.10;;;8.73;;
54745;SDS011;40640;48.130;11.356;2023-02-24T10:55:24;16.08;;;9.10;;
54745;SDS011;40640;48.130;11.356;2023-02-24T10:59:29;14.45;;;7.90;;
54745;SDS011;40640;48.130;11.356;2023-02-24T11:03:50;13.38;;;8.30;;
54745;SDS011;40640;48.130;11.356;2023-02-24T11:08:13;21.70;;;9.18;;
54745;SDS011;40640;48.130;11.356;2023-02-24T11:12:41;16.38;;;8.38;;
54745;SDS011;40640;48.130;11.356;2023-02-24T11:17:15;17.80;;;8.45;;
54745;SDS011;40640;48.130;11.356;2023-02-24T11:21:24;20.40;;;8.60;;
54745;SDS011;40640;48.130;11.356;2023-02-24T11:25:32;14.98;;;8.00;;
54745;SDS011;40640;48.130;11.356;2023-02-24T11:29:42;16.50;;;8.20;;
54745;SDS011;40640;48.130;11.356;2023-02-24T11:34:29;15.18;;;7.95;;
54745;SDS011;40640;48.130;11.356;2023-02-24T11:55:11;21.67;;;8.50;;
54745;SDS011;40640;48.130;11.356;2023-02-24T11:59:31;19.75;;;8.23;;
54745;SDS011;40640;48.130;11.356;2023-02-24T12:03:38;16.80;;;8.30;;
54745;SDS011;40640;48.130;11.356;2023-02-24T12:07:51;14.60;;;8.23;;
54745;SDS011;40640;48.130;11.356;2023-02-24T12:11:57;19.52;;;8.77;;
54745;SDS011;40640;48.130;11.356;2023-02-24T12:16:03;20.85;;;9.15;;
54745;SDS011;40640;48.130;11.356;2023-02-24T12:20:14;18.48;;;9.57;;
54745;SDS011;40640;48.130;11.356;2023-02-24T12:24:22;20.38;;;9.65;;
54745;SDS011;40640;48.130;11.356;2023-02-24T12:28:30;19.13;;;8.88;;
54745;SDS011;40640;48.130;11.356;2023-02-24T12:32:59;39.00;;;10.88;;
54745;SDS011;40640;48.130;11.356;2023-02-24T12:41:54;27.80;;;11.77;;
54745;SDS011;40640;48.130;11.356;2023-02-24T12:46:12;24.10;;;10.43;;
54745;SDS011;40640;48.130;11.356;2023-02-24T12:50:24;21.17;;;10.82;;
54745;SDS011;40640;48.130;11.356;2023-02-24T12:54:34;24.42;;;10.98;;
54745;SDS011;40640;48.130;11.356;2023-02-24T12:58:41;20.05;;;10.65;;
54745;SDS011;40640;48.130;11.356;2023-02-24T13:02:49;18.48;;;10.68;;
54745;SDS011;40640;48.130;11.356;2023-02-24T13:07:05;20.35;;;10.05;;
54745;SDS011;40640;48.130;11.356;2023-02-24T13:11:15;19.20;;;9.93;;
54745;SDS011;40640;48.130;11.356;2023-02-24T13:15:27;22.90;;;10.55;;
54745;SDS011;40640;48.130;11.356;2023-02-24T13:19:33;27.85;;;10.30;;
54745;SDS011;40640;48.130;11.356;2023-02-24T13:23:39;17.85;;;9.98;;
54745;SDS011;40640;48.130;11.356;2023-02-24T13:27:43;25.05;;;9.90;;
54745;SDS011;40640;48.130;11.356;2023-02-24T13:31:57;26.35;;;11.25;;
54745;SDS011;40640;48.130;11.356;2023-02-24T13:40:23;24.73;;;11.45;;
54745;SDS011;40640;48.130;11.356;2023-02-24T13:44:28;29.38;;;11.73;;
54745;SDS011;40640;48.130;11.356;2023-02-24T13:48:36;22.25;;;11.05;;
54745;SDS011;40640;48.130;11.356;2023-02-24T13:53:07;25.08;;;11.25;;
54745;SDS011;40640;48.130;11.356;2023-02-24T13:57:40;29.92;;;11.13;;
54745;SDS011;40640;48.130;11.356;2023-02-24T14:01:49;28.95;;;12.65;;
54745;SDS011;40640;48.130;11.356;2023-02-24T14:05:59;28.65;;;12.98;;
54745;SDS011;40640;48.130;11.356;2023-02-24T14:10:05;26.20;;;14.27;;
54745;SDS011;40640;48.130;11.356;2023-02-24T14:14:19;28.85;;;12.80;;
54745;SDS011;40640;48.130;11.356;2023-02-24T14:18:23;26.83;;;13.13;;
54745;SDS011;40640;48.130;11.356;2023-02-24T14:22:28;33.15;;;12.27;;
54745;SDS011;40640;48.130;11.356;2023-02-24T14:26:34;28.25;;;11.88;;
54745;SDS011;40640;48.130;11.356;2023-02-24T14:30:42;30.75;;;13.38;;
54745;SDS011;40640;48.130;11.356;2023-02-24T14:34:46;30.52;;;12.80;;
54745;SDS011;40640;48.130;11.356;2023-02-24T14:38:58;26.65;;;13.07;;
54745;SDS011;40640;48.130;11.356;2023-02-24T14:43:05;26.73;;;12.38;;
54745;SDS011;40640;48.130;11.356;2023-02-24T14:47:17;25.35;;;12.38;;
54745;SDS011;40640;48.130;11.356;2023-02-24T14:51:22;24.20;;;12.35;;
54745;SDS011;40640;48.130;11.356;2023-02-24T14:55:30;26.23;;;12.10;;
54745;SDS011;40640;48.130;11.356;2023-02-24T14:59:37;28.42;;;13.50;;
54745;SDS011;40640;48.130;11.356;2023-02-24T15:03:42;26.50;;;12.02;;
54745;SDS011;40640;48.130;11.356;2023-02-24T15:07:48;31.10;;;12.88;;
54745;SDS011;40640;48.130;11.356;2023-02-24T15:11:52;28.67;;;12.95;;
54745;SDS011;40640;48.130;11.356;2023-02-24T15:16:00;26.08;;;11.50;;
54745;SDS011;40640;48.130;11.356;2023-02-24T15:24:33;23.55;;;10.38;;
54745;SDS011;40640;48.130;11.356;2023-02-24T15:28:36;28.42;;;9.73;;
54745;SDS011;40640;48.130;11.356;2023-02-24T15:32:41;25.42;;;10.32;;
54745;SDS011;40640;48.130;11.356;2023-02-24T15:36:44;26.10;;;11.82;;
54745;SDS011;40640;48.130;11.356;2023-02-24T15:40:49;26.00;;;10.85;;
54745;SDS011;40640;48.130;11.356;2023-02-24T15:44:54;27.17;;;10.43;;
54745;SDS011;40640;48.130;11.356;2023-02-24T15:49:00;23.05;;;11.73;;
54745;SDS011;40640;48.130;11.356;2023-02-24T15:53:05;26.30;;;11.23;;
54745;SDS011;40640;48.130;11.356;2023-02-24T15:57:13;24.60;;;11.52;;
54745;SDS011;40640;48.130;11.356;2023-02-24T16:01:17;28.67;;;11.85;;
54745;SDS011;40640;48.130;11.356;2023-02-24T16:05:26;28.92;;;12.68;;
54745;SDS011;40640;48.130;11.356;2023-02-24T16:09:32;23.65;;;12.93;;
54745;SDS011;40640;48.130;11.356;2023-02-24T16:13:37;28.35;;;12.77;;
54745;SDS011;40640;48.130;11.356;2023-02-24T16:17:41;28.63;;;11.75;;
54745;SDS011;40640;48.130;11.356;2023-02-24T16:21:45;22.23;;;10.32;;
54745;SDS011;40640;48.130;11.356;2023-02-24T16:25:49;22.63;;;9.88;;
54745;SDS011;40640;48.130;11.356;2023-02-24T16:29:55;34.08;;;10.18;;
54745;SDS011;40640;48.130;11.356;2023-02-24T16:33:58;22.98;;;10.55;;
54745;SDS011;40640;48.130;11.356;2023-02-24T16:38:02;30.45;;;11.25;;
54745;SDS011;40640;48.130;11.356;2023-02-24T16:42:07;26.17;;;10.40;;
54745;SDS011;40640;48.130;11.356;2023-02-24T16:46:12;18.15;;;8.90;;
54745;SDS011;40640;48.130;11.356;2023-02-24T16:50:18;22.02;;;8.10;;
54745;SDS011;40640;48.130;11.356;2023-02-24T16:54:25;24.13;;;6.70;;
54745;SDS011;40640;48.130;11.356;2023-02-24T16:58:29;21.08;;;6.43;;
54745;SDS011;40640;48.130;11.356;2023-02-24T17:02:32;21.92;;;7.70;;
54745;SDS011;40640;48.130;11.356;2023-02-24T17:06:35;24.90;;;10.07;;
54745;SDS011;40640;48.130;11.356;2023-02-24T17:10:40;23.88;;;6.63;;
54745;SDS011;40640;48.130;11.356;2023-02-24T17:14:44;17.57;;;6.00;;
54745;SDS011;40640;48.130;11.356;2023-02-24T17:18:47;29.85;;;7.03;;
54745;SDS011;40640;48.130;11.356;2023-02-24T17:22:49;24.27;;;6.18;;
54745;SDS011;40640;48.130;11.356;2023-02-24T17:26:54;21.67;;;5.47;;
54745;SDS011;40640;48.130;11.356;2023-02-24T17:30:59;22.42;;;4.25;;
54745;SDS011;40640;48.130;11.356;2023-02-24T17:35:01;19.20;;;4.15;;
54745;SDS011;40640;48.130;11.356;2023-02-24T17:39:04;10.93;;;3.20;;
54745;SDS011;40640;48.130;11.356;2023-02-24T17:43:09;12.52;;;2.90;;
54745;SDS011;40640;48.130;11.356;2023-02-24T17:47:12;15.32;;;3.47;;
54745;SDS011;40640;48.130;11.356;2023-02-24T17:51:15;17.45;;;3.10;;
54745;SDS011;40640;48.130;11.356;2023-02-24T17:55:20;13.60;;;3.70;;
54745;SDS011;40640;48.130;11.356;2023-02-24T17:59:24;18.40;;;5.35;;
54745;SDS011;40640;48.130;11.356;2023-02-24T18:03:27;20.52;;;4.68;;
54745;SDS011;40640;48.130;11.356;2023-02-24T18:07:30;22.90;;;4.30;;
54745;SDS011;40640;48.130;11.356;2023-02-24T18:11:32;20.38;;;5.15;;
54745;SDS011;40640;48.130;11.356;2023-02-24T18:15:38;22.63;;;5.65;;
54745;SDS011;40640;48.130;11.356;2023-02-24T18:19:41;25.92;;;7.70;;
54745;SDS011;40640;48.130;11.356;2023-02-24T18:23:44;22.42;;;6.00;;
54745;SDS011;40640;48.130;11.356;2023-02-24T18:27:46;28.90;;;7.03;;
54745;SDS011;40640;48.130;11.356;2023-02-24T18:31:50;34.72;;;7.43;;
54745;SDS011;40640;48.130;11.356;2023-02-24T18:35:57;23.58;;;6.95;;
54745;SDS011;40640;48.130;11.356;2023-02-24T18:40:00;32.30;;;6.55;;
54745;SDS011;40640;48.130;11.356;2023-02-24T18:44:03;21.88;;;5.50;;
54745;SDS011;40640;48.130;11.356;2023-02-24T18:48:08;21.92;;;6.43;;
54745;SDS011;40640;48.130;11.356;2023-02-24T18:52:11;25.58;;;6.88;;
54745;SDS011;40640;48.130;11.356;2023-02-24T18:56:14;25.15;;;7.20;;
54745;SDS011;40640;48.130;11.356;2023-02-24T19:00:19;22.67;;;5.82;;
54745;SDS011;40640;48.130;11.356;2023-02-24T19:04:23;34.58;;;5.47;;
54745;SDS011;40640;48.130;11.356;2023-02-24T19:08:26;31.90;;;6.18;;
54745;SDS011;40640;48.130;11.356;2023-02-24T19:12:29;27.92;;;7.10;;
54745;SDS011;40640;48.130;11.356;2023-02-24T19:16:32;27.42;;;5.78;;
54745;SDS011;40640;48.130;11.356;2023-02-24T19:20:39;26.65;;;6.63;;
54745;SDS011;40640;48.130;11.356;2023-02-24T19:24:43;23.23;;;5.43;;
54745;SDS011;40640;48.130;11.356;2023-02-24T19:28:45;24.48;;;6.75;;
54745;SDS011;40640;48.130;11.356;2023-02-24T19:32:48;32.95;;;5.88;;
54745;SDS011;40640;48.130;11.356;2023-02-24T19:36:53;25.25;;;5.55;;
54745;SDS011;40640;48.130;11.356;2023-02-24T19:40:56;28.48;;;5.43;;
54745;SDS011;40640;48.130;11.356;2023-02-24T19:44:59;21.52;;;4.53;;
54745;SDS011;40640;48.130;11.356;2023-02-24T19:49:02;18.08;;;4.70;;
54745;SDS011;40640;48.130;11.356;2023-02-24T19:53:07;22.45;;;5.15;;
54745;SDS011;40640;48.130;11.356;2023-02-24T19:57:10;18.35;;;5.35;;
54745;SDS011;40640;48.130;11.356;2023-02-24T20:01:13;14.68;;;4.63;;
54745;SDS011;40640;48.130;11.356;2023-02-24T20:05:16;26.00;;;6.28;;
54745;SDS011;40640;48.130;11.356;2023-02-24T20:09:20;24.50;;;6.75;;
54745;SDS011;40640;48.130;11.356;2023-02-24T20:13:23;26.67;;;6.55;;
54745;SDS011;40640;48.130;11.356;2023-02-24T20:17:26;20.10;;;5.30;;
54745;SDS011;40640;48.130;11.356;2023-02-24T20:21:29;27.70;;;9.30;;
54745;SDS011;40640;48.130;11.356;2023-02-24T20:25:33;22.48;;;5.55;;
54745;SDS011;40640;48.130;11.356;2023-02-24T20:29:36;14.95;;;5.57;;
54745;SDS011;40640;48.130;11.356;2023-02-24T20:33:39;28.05;;;11.63;;
54745;SDS011;40640;48.130;11.356;2023-02-24T20:37:43;16.98;;;7.43;;
54745;SDS011;40640;48.130;11.356;2023-02-24T20:41:47;10.25;;;4.93;;
54745;SDS011;40640;48.130;11.356;2023-02-24T20:45:50;16.13;;;4.47;;
54745;SDS011;40640;48.130;11.356;2023-02-24T20:49:53;15.40;;;5.82;;
54745;SDS011;40640;48.130;11.356;2023-02-24T20:53:56;20.92;;;5.38;;
54745;SDS011;40640;48.130;11.356;2023-02-24T20:58:00;21.55;;;5.93;;
54745;SDS011;40640;48.130;11.356;2023-02-24T21:02:03;19.25;;;6.57;;
54745;SDS011;40640;48.130;11.356;2023-02-24T21:06:08;30.02;;;8.35;;
54745;SDS011;40640;48.130;11.356;2023-02-24T21:10:12;20.67;;;9.13;;
54745;SDS011;40640;48.130;11.356;2023-02-24T21:14:16;20.20;;;7.95;;
54745;SDS011;40640;48.130;11.356;2023-02-24T21:18:20;12.48;;;6.72;;
54745;SDS011;40640;48.130;11.356;2023-02-24T21:22:24;8.25;;;3.95;;
54745;SDS011;40640;48.130;11.356;2023-02-24T21:26:26;10.38;;;3.05;;
54745;SDS011;40640;48.130;11.356;2023-02-24T21:30:31;6.97;;;3.30;;
54745;SDS011;40640;48.130;11.356;2023-02-24T21:34:33;8.23;;;3.53;;
54745;SDS011;40640;48.130;11.356;2023-02-24T21:38:36;8.88;;;3.55;;
54745;SDS011;40640;48.130;11.356;2023-02-24T21:42:39;7.30;;;3.85;;
54745;SDS011;40640;48.130;11.356;2023-02-24T21:46:46;10.80;;;3.83;;
54745;SDS011;40640;48.130;11.356;2023-02-24T21:50:55;7.90;;;3.63;;
54745;SDS011;40640;48.130;11.356;2023-02-24T21:54:59;9.75;;;3.80;;
54745;SDS011;40640;48.130;11.356;2023-02-24T21:59:03;10.43;;;3.38;;
54745;SDS011;40640;48.130;11.356;2023-02-24T22:03:10;7.28;;;4.28;;
54745;SDS011;40640;48.130;11.356;2023-02-24T22:07:13;11.25;;;4.15;;
54745;SDS011;40640;48.130;11.356;2023-02-24T22:11:17;9.50;;;4.05;;
54745;SDS011;40640;48.130;11.356;2023-02-24T22:15:20;10.27;;;4.97;;
54745;SDS011;40640;48.130;11.356;2023-02-24T22:19:24;10.20;;;4.45;;
54745;SDS011;40640;48.130;11.356;2023-02-24T22:23:27;7.03;;;4.22;;
54745;SDS011;40640;48.130;11.356;2023-02-24T22:27:30;10.68;;;4.57;;
54745;SDS011;40640;48.130;11.356;2023-02-24T22:31:33;10.45;;;4.35;;
54745;SDS011;40640;48.130;11.356;2023-02-24T22:35:39;14.40;;;4.70;;
54745;SDS011;40640;48.130;11.356;2023-02-24T22:39:42;7.00;;;3.55;;
54745;SDS011;40640;48.130;11.356;2023-02-24T22:43:45;12.73;;;4.63;;
54745;SDS011;40640;48.130;11.356;2023-02-24T22:47:48;13.73;;;4.75;;
54745;SDS011;40640;48.130;11.356;2023-02-24T22:51:52;12.13;;;4.70;;
54745;SDS011;40640;48.130;11.356;2023-02-24T22:55:55;9.80;;;4.60;;
54745;SDS011;40640;48.130;11.356;2023-02-24T22:59:58;11.32;;;5.45;;
54745;SDS011;40640;48.130;11.356;2023-02-24T23:04:02;9.98;;;5.38;;
54745;SDS011;40640;48.130;11.356;2023-02-24T23:08:07;11.25;;;5.07;;
54745;SDS011;40640;48.130;11.356;2023-02-24T23:12:10;9.88;;;5.22;;
54745;SDS011;40640;48.130;11.356;2023-02-24T23:16:16;12.80;;;6.50;;
54745;SDS011;40640;48.130;11.356;2023-02-24T23:20:21;11.48;;;5.75;;
54745;SDS011;40640;48.130;11.356;2023-02-24T23:24:25;13.85;;;7.30;;
54745;SDS011;40640;48.130;11.356;2023-02-24T23:28:28;12.20;;;6.90;;
54745;SDS011;40640;48.130;11.356;2023-02-24T23:32:31;17.48;;;8.15;;
54745;SDS011;40640;48.130;11.356;2023-02-24T23:36:35;18.80;;;8.35;;
54745;SDS011;40640;48.130;11.356;2023-02-24T23:40:41;10.82;;;6.30;;
54745;SDS011;40640;48.130;11.356;2023-02-24T23:44:50;10.20;;;5.70;;
54745;SDS011;40640;48.130;11.356;2023-02-24T23:48:54;14.52;;;5.22;;
54745;SDS011;40640;48.130;11.356;2023-02-24T23:52:57;10.02;;;5.20;;
54745;SDS011;40640;48.130;11.356;2023-02-24T23:57:03;9.25;;;5.43;;
